createdAt,value
2023-02-06T00:01:51.120Z,8.00
2023-02-06T00:04:17.675Z,6.63
2023-02-06T00:06:44.193Z,11.40
2023-02-06T00:09:11.031Z,8.55
2023-02-06T00:11:37.458Z,7.72
2023-02-06T00:14:04.106Z,8.32
2023-02-06T00:16:33.096Z,9.05
2023-02-06T00:19:00.030Z,7.68
2023-02-06T00:21:27.898Z,8.35
2023-02-06T00:23:56.518Z,8.77
2023-02-06T00:26:23.453Z,10.70
2023-02-06T00:28:51.009Z,7.18
2023-02-06T00:31:17.576Z,8.57
2023-02-06T00:33:44.070Z,9.40
2023-02-06T00:36:11.021Z,7.47
2023-02-06T00:38:38.363Z,8.35
2023-02-06T00:41:05.492Z,10.82
2023-02-06T00:43:32.193Z,8.68
2023-02-06T00:45:58.826Z,7.93
2023-02-06T00:48:25.598Z,6.25
2023-02-06T00:50:52.928Z,10.63
2023-02-06T00:53:19.522Z,11.65
2023-02-06T00:55:45.928Z,8.30
2023-02-06T00:58:12.355Z,8.93
2023-02-06T01:00:38.768Z,7.43
2023-02-06T01:03:05.244Z,8.82
2023-02-06T01:05:31.644Z,8.30
2023-02-06T01:07:58.069Z,9.85
2023-02-06T01:10:24.542Z,8.25
2023-02-06T01:12:50.995Z,8.85
2023-02-06T01:15:17.393Z,11.73
2023-02-06T01:17:43.903Z,10.60
2023-02-06T01:20:12.724Z,8.27
2023-02-06T01:22:39.565Z,6.75
2023-02-06T01:25:06.863Z,9.27
2023-02-06T01:27:36.679Z,9.60
2023-02-06T01:30:04.964Z,7.55
2023-02-06T01:32:31.471Z,8.30
2023-02-06T01:34:57.936Z,8.57
2023-02-06T01:37:24.383Z,11.15
2023-02-06T01:39:50.831Z,8.20
2023-02-06T01:42:17.288Z,9.30
2023-02-06T01:44:43.719Z,8.80
2023-02-06T01:47:10.992Z,8.73
2023-02-06T01:49:43.925Z,8.00
2023-02-06T01:52:10.288Z,7.97
2023-02-06T01:54:36.951Z,8.77
2023-02-06T01:57:09.114Z,8.93
2023-02-06T01:59:36.552Z,10.32
2023-02-06T02:02:03.302Z,6.68
2023-02-06T02:04:32.747Z,10.45
2023-02-06T02:07:22.517Z,9.50
2023-02-06T02:09:48.960Z,7.68
2023-02-06T02:12:15.579Z,6.88
2023-02-06T02:14:44.414Z,9.77
2023-02-06T02:17:46.927Z,8.57
2023-02-06T02:20:35.219Z,11.40
2023-02-06T02:23:01.591Z,10.02
2023-02-06T02:25:53.353Z,8.13
2023-02-06T02:28:32.008Z,9.13
2023-02-06T02:31:17.192Z,7.70
2023-02-06T02:33:55.669Z,8.35
2023-02-06T02:36:40.986Z,10.52
2023-02-06T02:39:29.690Z,9.13
2023-02-06T02:42:15.240Z,10.30
2023-02-06T02:44:57.451Z,10.00
2023-02-06T02:47:30.442Z,11.95
2023-02-06T02:50:00.916Z,9.80
2023-02-06T02:54:54.644Z,8.57
2023-02-06T02:57:25.983Z,9.20
2023-02-06T02:59:53.151Z,8.93
2023-02-06T03:02:28.569Z,9.18
2023-02-06T03:05:02.375Z,9.52
2023-02-06T03:07:31.857Z,8.45
2023-02-06T03:10:13.501Z,10.63
2023-02-06T03:13:20.121Z,9.40
2023-02-06T03:15:54.808Z,8.00
2023-02-06T03:18:44.574Z,7.90
2023-02-06T03:21:15.324Z,10.73
2023-02-06T03:23:43.779Z,10.85
2023-02-06T03:26:14.934Z,10.85
2023-02-06T03:28:57.179Z,10.50
2023-02-06T03:31:28.985Z,8.30
2023-02-06T03:34:02.531Z,9.13
2023-02-06T03:36:29.429Z,8.50
2023-02-06T03:38:55.878Z,7.75
2023-02-06T03:41:29.286Z,8.77
2023-02-06T03:43:57.421Z,15.23
2023-02-06T03:46:26.055Z,9.68
2023-02-06T03:48:57.803Z,9.93
2023-02-06T03:51:29.098Z,8.85
2023-02-06T03:53:58.452Z,11.15
2023-02-06T03:56:33.938Z,9.93
2023-02-06T03:59:00.632Z,8.48
2023-02-06T04:01:27.878Z,6.50
2023-02-06T04:03:54.524Z,12.90
2023-02-06T04:06:21.263Z,9.52
2023-02-06T04:08:47.668Z,9.43
2023-02-06T04:11:14.155Z,10.23
2023-02-06T04:13:40.535Z,10.80
2023-02-06T04:16:07.646Z,14.48
2023-02-06T04:18:34.081Z,11.45
2023-02-06T04:21:07.415Z,12.77
2023-02-06T04:23:34.260Z,10.70
2023-02-06T04:26:00.660Z,8.52
2023-02-06T04:28:27.440Z,11.43
2023-02-06T04:30:54.003Z,12.02
2023-02-06T04:33:20.450Z,9.63
2023-02-06T04:35:48.104Z,11.15
2023-02-06T04:38:14.986Z,8.68
2023-02-06T04:40:41.495Z,9.35
2023-02-06T04:43:07.994Z,8.25
2023-02-06T04:45:34.861Z,13.02
2023-02-06T04:48:01.537Z,11.15
2023-02-06T04:50:31.960Z,7.10
2023-02-06T04:52:58.592Z,10.45
2023-02-06T04:55:25.105Z,9.00
2023-02-06T04:57:51.528Z,9.82
2023-02-06T05:00:18.261Z,10.98
2023-02-06T05:02:44.792Z,10.90
2023-02-06T05:05:11.588Z,9.18
2023-02-06T05:07:38.065Z,9.95
2023-02-06T05:10:04.817Z,11.52
2023-02-06T05:12:31.303Z,10.05
2023-02-06T05:14:57.725Z,9.02
2023-02-06T05:17:24.162Z,8.15
2023-02-06T05:19:50.689Z,10.20
2023-02-06T05:22:17.082Z,6.07
2023-02-06T05:24:43.466Z,11.68
2023-02-06T05:27:10.097Z,10.23
2023-02-06T05:29:36.644Z,8.43
2023-02-06T05:32:03.175Z,10.10
2023-02-06T05:34:29.573Z,8.55
2023-02-06T05:36:56.066Z,8.10
2023-02-06T05:39:22.554Z,12.23
2023-02-06T05:41:48.968Z,7.50
2023-02-06T05:44:15.395Z,12.55
2023-02-06T05:46:41.910Z,8.27
2023-02-06T05:49:08.330Z,8.32
2023-02-06T05:51:35.025Z,9.13
2023-02-06T05:54:01.689Z,10.70
2023-02-06T05:56:28.182Z,7.97
2023-02-06T05:58:54.588Z,7.05
2023-02-06T06:01:21.035Z,10.48
2023-02-06T06:03:47.512Z,10.02
2023-02-06T06:06:14.098Z,9.38
2023-02-06T06:08:40.590Z,7.53
2023-02-06T06:11:07.565Z,8.43
2023-02-06T06:13:34.468Z,9.02
2023-02-06T06:16:00.967Z,7.75
2023-02-06T06:18:28.574Z,9.85
2023-02-06T06:20:54.986Z,9.43
2023-02-06T06:23:21.446Z,8.77
2023-02-06T06:25:48.696Z,7.55
2023-02-06T06:28:15.714Z,7.85
2023-02-06T06:30:42.467Z,7.07
2023-02-06T06:33:08.909Z,9.75
2023-02-06T06:35:35.612Z,7.25
2023-02-06T06:38:02.373Z,10.07
2023-02-06T06:40:28.892Z,9.93
2023-02-06T06:42:55.324Z,9.32
2023-02-06T06:45:21.809Z,11.40
2023-02-06T06:47:48.226Z,8.77
2023-02-06T06:50:14.892Z,9.75
2023-02-06T06:52:41.298Z,10.15
2023-02-06T06:55:08.100Z,10.75
2023-02-06T06:57:34.517Z,9.30
2023-02-06T07:00:01.025Z,9.10
2023-02-06T07:02:28.579Z,11.52
2023-02-06T07:04:55.617Z,11.75
2023-02-06T07:07:22.110Z,8.10
2023-02-06T07:09:48.602Z,10.48
2023-02-06T07:12:15.668Z,11.02
2023-02-06T07:14:42.182Z,10.55
2023-02-06T07:17:08.685Z,11.63
2023-02-06T07:19:35.142Z,11.98
2023-02-06T07:22:01.596Z,10.98
2023-02-06T07:24:28.071Z,11.93
2023-02-06T07:26:54.686Z,10.60
2023-02-06T07:29:21.148Z,8.23
2023-02-06T07:31:47.566Z,9.77
2023-02-06T07:34:14.994Z,11.02
2023-02-06T07:36:41.420Z,10.95
2023-02-06T07:39:07.983Z,11.70
2023-02-06T07:41:34.814Z,12.13
2023-02-06T07:44:01.286Z,16.33
2023-02-06T07:46:28.222Z,14.85
2023-02-06T07:48:54.695Z,15.90
2023-02-06T07:51:21.326Z,12.73
2023-02-06T07:53:48.580Z,15.55
2023-02-06T07:56:18.348Z,13.02
2023-02-06T07:58:45.184Z,13.27
2023-02-06T08:01:11.659Z,9.00
2023-02-06T08:03:38.512Z,13.40
2023-02-06T08:06:10.316Z,12.13
2023-02-06T08:08:36.961Z,14.68
2023-02-06T08:11:13.270Z,9.70
2023-02-06T08:13:39.880Z,14.18
2023-02-06T08:16:10.218Z,12.77
2023-02-06T08:18:37.810Z,14.45
2023-02-06T08:21:12.409Z,11.75
2023-02-06T08:23:39.276Z,10.80
2023-02-06T08:26:17.378Z,13.18
2023-02-06T08:28:45.898Z,9.50
2023-02-06T08:31:19.725Z,13.75
2023-02-06T08:33:46.534Z,11.82
2023-02-06T08:36:14.185Z,12.18
2023-02-06T08:38:40.724Z,10.80
2023-02-06T08:41:26.062Z,10.88
2023-02-06T08:43:55.370Z,12.63
2023-02-06T08:46:24.456Z,8.85
2023-02-06T08:48:56.576Z,12.18
2023-02-06T08:51:23.425Z,10.35
2023-02-06T08:53:49.826Z,12.13
2023-02-06T08:56:16.281Z,15.10
2023-02-06T08:58:42.845Z,12.80
2023-02-06T09:01:13.792Z,9.60
2023-02-06T09:03:41.767Z,10.98
2023-02-06T09:06:10.229Z,11.73
2023-02-06T09:08:38.691Z,12.07
2023-02-06T09:11:15.694Z,11.57
2023-02-06T09:13:43.875Z,11.52
2023-02-06T09:16:11.836Z,8.95
2023-02-06T09:18:38.409Z,12.38
2023-02-06T09:21:13.879Z,11.38
2023-02-06T09:23:52.247Z,9.07
2023-02-06T09:26:28.755Z,10.23
2023-02-06T09:29:00.824Z,10.05
2023-02-06T09:31:31.725Z,8.05
2023-02-06T09:34:00.354Z,8.40
2023-02-06T09:36:27.385Z,9.88
2023-02-06T09:38:57.173Z,10.02
2023-02-06T09:41:26.588Z,8.27
2023-02-06T09:43:57.500Z,8.65
2023-02-06T09:46:28.210Z,6.43
2023-02-06T09:48:57.150Z,7.07
2023-02-06T09:51:40.178Z,10.13
2023-02-06T09:54:12.620Z,7.05
2023-02-06T09:56:52.969Z,6.43
2023-02-06T09:59:37.261Z,7.38
2023-02-06T10:03:01.147Z,7.00
2023-02-06T10:05:52.714Z,5.75
2023-02-06T10:08:39.082Z,8.73
2023-02-06T10:11:21.119Z,6.13
2023-02-06T10:14:01.622Z,8.63
2023-02-06T10:19:43.903Z,5.28
2023-02-06T10:22:16.883Z,5.93
2023-02-06T10:25:11.247Z,6.05
2023-02-06T10:27:41.906Z,6.57
2023-02-06T10:30:16.357Z,7.13
2023-02-06T10:33:07.905Z,5.93
2023-02-06T10:35:46.919Z,5.68
2023-02-06T10:38:44.394Z,5.68
2023-02-06T10:41:42.836Z,6.70
2023-02-06T10:44:54.340Z,5.28
2023-02-06T10:47:35.065Z,6.80
2023-02-06T10:50:44.319Z,7.22
2023-02-06T10:53:34.561Z,5.00
2023-02-06T10:56:09.393Z,5.53
2023-02-06T10:58:42.516Z,6.63
2023-02-06T11:01:25.024Z,6.38
2023-02-06T11:04:15.562Z,7.93
2023-02-06T11:06:43.008Z,8.17
2023-02-06T11:09:10.550Z,6.63
2023-02-06T11:11:40.722Z,7.28
2023-02-06T11:14:48.700Z,6.82
2023-02-06T11:17:18.617Z,9.00
2023-02-06T11:19:45.345Z,6.05
2023-02-06T11:22:15.754Z,5.82
2023-02-06T11:27:27.079Z,6.38
2023-02-06T11:29:53.945Z,6.72
2023-02-06T11:32:36.422Z,7.50
2023-02-06T11:35:21.278Z,6.45
2023-02-06T11:37:53.124Z,7.78
2023-02-06T11:40:19.786Z,6.95
2023-02-06T11:42:55.445Z,5.78
2023-02-06T11:45:29.743Z,6.07
2023-02-06T11:47:56.881Z,6.88
2023-02-06T11:50:28.455Z,6.43
2023-02-06T11:53:09.224Z,5.68
2023-02-06T11:55:37.993Z,6.57
2023-02-06T11:58:21.480Z,6.55
2023-02-06T12:00:51.038Z,7.95
2023-02-06T12:03:34.326Z,7.27
2023-02-06T12:06:14.921Z,6.15
2023-02-06T12:08:47.635Z,6.57
2023-02-06T12:11:20.822Z,6.75
2023-02-06T12:13:55.964Z,6.80
2023-02-06T12:16:24.086Z,5.95
2023-02-06T12:18:56.259Z,8.27
2023-02-06T12:21:39.117Z,6.45
2023-02-06T12:24:13.445Z,7.07
2023-02-06T12:26:41.682Z,6.28
2023-02-06T12:29:17.457Z,7.38
2023-02-06T12:31:53.029Z,6.00
2023-02-06T12:34:24.719Z,6.63
2023-02-06T12:37:00.550Z,8.15
2023-02-06T12:39:32.288Z,6.15
2023-02-06T12:42:20.709Z,5.70
2023-02-06T12:44:55.379Z,6.10
2023-02-06T12:47:50.557Z,6.80
2023-02-06T12:50:21.604Z,6.35
2023-02-06T12:52:53.713Z,5.88
2023-02-06T12:55:30.378Z,5.82
2023-02-06T12:57:58.040Z,7.63
2023-02-06T13:00:45.753Z,6.40
2023-02-06T13:03:22.382Z,7.05
2023-02-06T13:06:12.474Z,6.30
2023-02-06T13:08:47.342Z,6.97
2023-02-06T13:11:36.005Z,8.32
2023-02-06T13:14:08.072Z,6.28
2023-02-06T13:16:43.822Z,6.43
2023-02-06T13:19:25.489Z,6.30
2023-02-06T13:22:13.577Z,7.43
2023-02-06T13:24:42.125Z,6.65
2023-02-06T13:27:08.562Z,5.88
2023-02-06T13:29:39.619Z,6.35
2023-02-06T13:32:12.256Z,6.43
2023-02-06T13:34:48.680Z,7.05
2023-02-06T13:37:39.794Z,7.90
2023-02-06T13:40:24.616Z,7.50
2023-02-06T13:42:57.325Z,7.15
2023-02-06T13:45:32.076Z,6.90
2023-02-06T13:48:19.534Z,7.22
2023-02-06T13:51:16.836Z,7.38
2023-02-06T13:54:05.379Z,8.82
2023-02-06T13:56:58.052Z,9.38
2023-02-06T13:59:29.492Z,5.95
2023-02-06T14:01:56.605Z,6.78
2023-02-06T14:04:29.918Z,6.20
2023-02-06T14:07:21.975Z,6.03
2023-02-06T14:10:41.050Z,6.03
2023-02-06T14:13:36.734Z,7.47
2023-02-06T14:16:26.075Z,6.25
2023-02-06T14:18:57.030Z,5.43
2023-02-06T14:21:58.692Z,7.68
2023-02-06T14:24:53.990Z,6.60
2023-02-06T14:27:58.997Z,7.95
2023-02-06T14:30:33.395Z,7.25
2023-02-06T14:33:38.092Z,7.40
2023-02-06T14:36:29.977Z,6.68
2023-02-06T14:38:59.469Z,6.55
2023-02-06T14:41:31.742Z,8.80
2023-02-06T14:43:59.682Z,6.78
2023-02-06T14:46:27.429Z,9.57
2023-02-06T14:48:59.913Z,9.68
2023-02-06T14:51:36.197Z,7.80
2023-02-06T14:54:05.720Z,12.57
2023-02-06T14:56:36.613Z,12.53
2023-02-06T14:59:18.853Z,9.48
2023-02-06T15:01:48.986Z,9.90
2023-02-06T15:04:27.484Z,8.65
2023-02-06T15:07:02.513Z,6.82
2023-02-06T15:09:33.295Z,5.22
2023-02-06T15:12:02.161Z,5.45
2023-02-06T15:14:34.880Z,6.28
2023-02-06T15:17:02.749Z,6.80
2023-02-06T15:19:35.566Z,5.47
2023-02-06T15:22:11.573Z,6.03
2023-02-06T15:24:50.223Z,5.63
2023-02-06T15:27:32.101Z,6.35
2023-02-06T15:29:59.720Z,5.82
2023-02-06T15:32:33.458Z,5.90
2023-02-06T15:35:01.139Z,5.72
2023-02-06T15:37:34.484Z,6.05
2023-02-06T15:40:18.834Z,4.75
2023-02-06T15:42:50.081Z,5.60
2023-02-06T15:45:23.042Z,5.07
2023-02-06T15:47:51.627Z,5.55
2023-02-06T15:50:24.476Z,4.97
2023-02-06T15:52:51.185Z,6.68
2023-02-06T15:55:35.665Z,5.45
2023-02-06T15:58:05.031Z,6.22
2023-02-06T16:00:34.514Z,4.95
2023-02-06T16:03:08.395Z,4.90
2023-02-06T16:05:38.546Z,4.85
2023-02-06T16:08:19.369Z,4.90
2023-02-06T16:10:55.961Z,6.13
2023-02-06T16:13:27.533Z,5.65
2023-02-06T16:16:20.912Z,5.65
2023-02-06T16:18:48.868Z,5.43
2023-02-06T16:21:18.493Z,5.03
2023-02-06T16:23:47.892Z,6.75
2023-02-06T16:26:18.399Z,5.85
2023-02-06T16:28:59.209Z,6.18
2023-02-06T16:31:27.408Z,6.43
2023-02-06T16:33:55.984Z,6.22
2023-02-06T16:36:23.724Z,5.30
2023-02-06T16:39:02.715Z,6.50
2023-02-06T16:41:38.878Z,5.63
2023-02-06T16:44:14.802Z,6.03
2023-02-06T16:46:41.866Z,9.00
2023-02-06T16:49:13.940Z,6.28
2023-02-06T16:51:42.219Z,5.72
2023-02-06T16:54:15.620Z,7.30
2023-02-06T16:56:42.173Z,6.68
2023-02-06T16:59:08.642Z,6.38
2023-02-06T17:01:35.587Z,5.93
2023-02-06T17:04:02.081Z,6.63
2023-02-06T17:06:32.311Z,6.50
2023-02-06T17:09:03.460Z,7.43
2023-02-06T17:11:31.347Z,7.75
2023-02-06T17:13:57.873Z,10.63
2023-02-06T17:16:25.964Z,8.73
2023-02-06T17:18:53.232Z,13.20
2023-02-06T17:21:21.944Z,7.78
2023-02-06T17:23:51.561Z,7.72
2023-02-06T17:26:21.312Z,7.88
2023-02-06T17:28:48.968Z,7.50
2023-02-06T17:31:15.659Z,7.45
2023-02-06T17:33:42.208Z,7.65
2023-02-06T17:36:16.159Z,7.10
2023-02-06T17:38:42.792Z,7.13
2023-02-06T17:41:12.166Z,7.47
2023-02-06T17:43:38.670Z,7.93
2023-02-06T17:46:06.298Z,6.88
2023-02-06T17:48:36.629Z,6.88
2023-02-06T17:51:04.996Z,7.93
2023-02-06T17:53:31.437Z,6.95
2023-02-06T17:55:57.958Z,6.50
2023-02-06T17:58:24.429Z,6.45
2023-02-06T18:00:50.951Z,7.22
2023-02-06T18:03:18.456Z,6.60
2023-02-06T18:05:47.062Z,8.52
2023-02-06T18:08:13.481Z,6.70
2023-02-06T18:10:39.876Z,7.28
2023-02-06T18:13:06.335Z,8.95
2023-02-06T18:15:33.151Z,8.00
2023-02-06T18:18:00.123Z,8.48
2023-02-06T18:20:26.549Z,9.65
2023-02-06T18:22:53.006Z,10.32
2023-02-06T18:25:19.536Z,13.02
2023-02-06T18:27:46.148Z,16.98
2023-02-06T18:30:14.590Z,16.05
2023-02-06T18:32:41.114Z,16.00
2023-02-06T18:35:09.041Z,13.43
2023-02-06T18:37:35.770Z,13.93
2023-02-06T18:40:02.735Z,12.43
2023-02-06T18:42:47.684Z,11.20
2023-02-06T18:45:14.309Z,9.63
2023-02-06T18:47:42.383Z,8.57
2023-02-06T18:50:10.493Z,7.70
2023-02-06T18:52:37.095Z,7.50
2023-02-06T18:55:04.241Z,8.23
2023-02-06T18:57:30.664Z,7.57
2023-02-06T18:59:57.232Z,7.25
2023-02-06T19:02:23.669Z,7.65
2023-02-06T19:04:50.094Z,8.85
2023-02-06T19:07:16.651Z,8.52
2023-02-06T19:09:43.313Z,8.05
2023-02-06T19:12:10.137Z,9.15
2023-02-06T19:14:36.606Z,8.23
2023-02-06T19:17:03.004Z,8.45
2023-02-06T19:19:29.460Z,8.18
2023-02-06T19:21:56.563Z,7.55
2023-02-06T19:24:23.459Z,9.07
2023-02-06T19:26:49.885Z,7.75
2023-02-06T19:29:34.339Z,8.27
2023-02-06T19:32:02.026Z,7.18
2023-02-06T19:34:28.525Z,7.47
2023-02-06T19:36:54.896Z,8.73
2023-02-06T19:39:21.352Z,8.13
2023-02-06T19:41:47.871Z,9.27
2023-02-06T19:44:14.668Z,9.27
2023-02-06T19:46:41.087Z,10.35
2023-02-06T19:49:08.777Z,8.68
2023-02-06T19:51:39.314Z,9.45
2023-02-06T19:54:06.404Z,9.27
2023-02-06T19:56:38.353Z,9.48
2023-02-06T19:59:20.864Z,9.35
2023-02-06T20:01:52.477Z,8.27
2023-02-06T20:04:21.462Z,8.38
2023-02-06T20:06:49.996Z,11.00
2023-02-06T20:09:17.545Z,8.75
2023-02-06T20:11:44.467Z,8.82
2023-02-06T20:14:12.415Z,10.75
2023-02-06T20:16:41.388Z,8.55
2023-02-06T20:19:18.609Z,10.13
2023-02-06T20:21:48.211Z,8.20
2023-02-06T20:24:18.513Z,10.20
2023-02-06T20:26:46.585Z,13.18
2023-02-06T20:29:28.974Z,9.10
2023-02-06T20:31:56.172Z,11.15
2023-02-06T20:34:23.571Z,12.05
2023-02-06T20:36:50.699Z,12.20
2023-02-06T20:39:17.859Z,11.43
2023-02-06T20:41:45.807Z,10.32
2023-02-06T20:44:13.655Z,11.98
2023-02-06T20:46:41.651Z,10.10
2023-02-06T20:49:13.966Z,11.25
2023-02-06T20:51:40.691Z,13.75
2023-02-06T20:54:07.663Z,12.82
2023-02-06T20:56:34.496Z,13.15
2023-02-06T20:59:01.321Z,12.77
2023-02-06T21:01:30.454Z,13.52
2023-02-06T21:04:02.584Z,12.95
2023-02-06T21:06:30.454Z,11.43
2023-02-06T21:09:00.033Z,11.45
2023-02-06T21:11:29.547Z,15.52
2023-02-06T21:13:58.439Z,13.10
2023-02-06T21:16:25.889Z,12.38
2023-02-06T21:18:53.806Z,14.82
2023-02-06T21:21:21.217Z,16.75
2023-02-06T21:23:47.926Z,15.30
2023-02-06T21:26:17.323Z,16.23
2023-02-06T21:28:44.590Z,14.40
2023-02-06T21:31:17.450Z,15.32
2023-02-06T21:33:47.570Z,14.77
2023-02-06T21:36:13.975Z,16.48
2023-02-06T21:38:41.376Z,16.25
2023-02-06T21:41:10.784Z,14.77
2023-02-06T21:43:37.401Z,15.47
2023-02-06T21:46:04.556Z,15.90
2023-02-06T21:48:32.160Z,17.27
2023-02-06T21:50:58.566Z,16.65
2023-02-06T21:53:25.127Z,16.25
2023-02-06T21:55:51.533Z,13.48
2023-02-06T21:58:18.130Z,15.07
2023-02-06T22:00:46.627Z,12.70
2023-02-06T22:03:14.029Z,13.57
2023-02-06T22:05:40.670Z,15.30
2023-02-06T22:08:07.199Z,14.15
2023-02-06T22:10:36.956Z,12.85
2023-02-06T22:13:05.183Z,12.90
2023-02-06T22:15:32.963Z,12.73
2023-02-06T22:17:59.791Z,13.15
2023-02-06T22:20:26.587Z,13.02
2023-02-06T22:22:54.821Z,12.70
2023-02-06T22:25:21.642Z,12.70
2023-02-06T22:27:48.068Z,13.48
2023-02-06T22:30:14.665Z,14.13
2023-02-06T22:32:41.098Z,13.52
2023-02-06T22:35:08.197Z,14.75
2023-02-06T22:37:34.686Z,14.43
2023-02-06T22:40:01.206Z,16.63
2023-02-06T22:42:27.638Z,16.60
2023-02-06T22:44:54.096Z,15.27
2023-02-06T22:47:20.492Z,17.10
2023-02-06T22:49:49.695Z,15.13
2023-02-06T22:52:34.694Z,19.20
2023-02-06T22:55:03.066Z,20.02
2023-02-06T22:57:29.961Z,16.50
2023-02-06T22:59:56.388Z,15.98
2023-02-06T23:02:22.835Z,16.25
2023-02-06T23:04:49.347Z,19.80
2023-02-06T23:07:15.831Z,15.50
2023-02-06T23:09:42.278Z,18.92
2023-02-06T23:12:11.300Z,20.50
2023-02-06T23:14:37.687Z,18.38
2023-02-06T23:17:04.232Z,19.77
2023-02-06T23:19:30.894Z,15.80
2023-02-06T23:21:57.365Z,16.08
2023-02-06T23:24:24.048Z,16.55
2023-02-06T23:26:53.607Z,15.73
2023-02-06T23:29:21.401Z,12.98
2023-02-06T23:31:48.818Z,17.77
2023-02-06T23:34:16.558Z,17.25
2023-02-06T23:36:44.036Z,17.05
2023-02-06T23:39:11.971Z,17.17
2023-02-06T23:41:38.978Z,16.98
2023-02-06T23:44:07.351Z,15.77
2023-02-06T23:46:36.367Z,16.63
2023-02-06T23:49:03.184Z,16.27
2023-02-06T23:51:29.584Z,15.13
2023-02-06T23:53:55.979Z,17.55
2023-02-06T23:56:25.578Z,15.38
2023-02-06T23:58:53.818Z,14.73
